Time;durP1;ratioP1;P1;durP2;ratioP2;P2;SDS_P1;SDS_P2;PMS_P1;PMS_P2;Temp;Humidity;BMP_temperature;BMP_pressure;BME280_temperature;BME280_humidity;BME280_pressure;Samples;Min_cycle;Max_cycle;Signal;HPM_P1;HPM_P2
2023/03/06 00:02:20;;;;;;;7.63;4.22;;;7.50;99.90;;;;;;5114337;28;20023;-43
2023/03/06 00:04:46;;;;;;;7.43;4.75;;;7.60;99.90;;;;;;5114229;28;20059;-42
2023/03/06 00:07:12;;;;;;;9.68;4.95;;;7.90;99.90;;;;;;5114214;28;20022;-41
2023/03/06 00:09:37;;;;;;;8.60;4.68;;;8.20;99.90;;;;;;5114587;28;20019;-47
2023/03/06 00:12:03;;;;;;;8.07;4.95;;;8.20;99.90;;;;;;5114258;28;20497;-47
2023/03/06 00:14:29;;;;;;;7.93;4.40;;;8.10;99.90;;;;;;5114147;28;20031;-41
2023/03/06 00:16:55;;;;;;;7.68;4.13;;;8.00;99.90;;;;;;5113837;28;20020;-42
2023/03/06 00:19:22;;;;;;;7.70;4.60;;;7.90;99.90;;;;;;5114695;28;20388;-43
2023/03/06 00:21:47;;;;;;;9.25;4.68;;;7.90;99.90;;;;;;5113976;28;20036;-46
2023/03/06 00:24:13;;;;;;;8.10;4.85;;;7.80;99.90;;;;;;5112371;28;20036;-42
2023/03/06 00:26:40;;;;;;;6.90;4.72;;;7.70;99.90;;;;;;5113669;28;20027;-43
2023/03/06 00:29:06;;;;;;;7.20;4.38;;;7.70;99.90;;;;;;5114090;28;20092;-42
2023/03/06 00:31:31;;;;;;;7.95;4.63;;;7.60;99.90;;;;;;5114289;28;20062;-42
2023/03/06 00:33:57;;;;;;;6.95;4.18;;;7.60;99.90;;;;;;5114390;28;20027;-45
2023/03/06 00:36:23;;;;;;;8.10;4.50;;;7.60;99.90;;;;;;5114683;28;20503;-42
2023/03/06 00:38:49;;;;;;;7.90;4.40;;;7.50;99.90;;;;;;5114293;28;20485;-44
2023/03/06 00:41:14;;;;;;;8.10;4.45;;;7.50;99.90;;;;;;5113730;28;20024;-44
2023/03/06 00:43:40;;;;;;;8.05;4.60;;;7.50;99.90;;;;;;5113437;28;20032;-44
2023/03/06 00:46:06;;;;;;;7.65;4.50;;;7.50;99.90;;;;;;5113353;28;20019;-44
2023/03/06 00:48:33;;;;;;;9.80;4.75;;;7.50;99.90;;;;;;5113593;28;20015;-43
2023/03/06 00:50:59;;;;;;;7.38;4.47;;;7.50;99.90;;;;;;5112977;28;20485;-43
2023/03/06 00:53:24;;;;;;;6.55;4.00;;;7.50;99.90;;;;;;5113213;28;20028;-44
2023/03/06 00:55:50;;;;;;;7.22;4.45;;;7.50;99.90;;;;;;5113161;28;20481;-43
2023/03/06 00:58:16;;;;;;;7.32;4.18;;;7.50;99.90;;;;;;5113241;28;20047;-43
2023/03/06 01:00:43;;;;;;;6.72;4.05;;;7.50;99.90;;;;;;5113026;28;20497;-42
2023/03/06 01:03:08;;;;;;;8.07;4.68;;;7.40;99.90;;;;;;5111938;28;20039;-43
2023/03/06 01:05:36;;;;;;;6.53;4.05;;;7.60;99.90;;;;;;5113583;28;20066;-46
2023/03/06 01:08:02;;;;;;;7.82;4.40;;;7.90;99.90;;;;;;5112948;28;20040;-44
2023/03/06 01:10:28;;;;;;;6.57;4.43;;;8.10;99.90;;;;;;5113096;28;20648;-41
2023/03/06 01:12:54;;;;;;;6.43;4.07;;;8.10;99.90;;;;;;5112931;28;20110;-45
2023/03/06 01:15:20;;;;;;;7.70;4.32;;;8.00;99.90;;;;;;5112885;28;20062;-43
2023/03/06 01:17:46;;;;;;;6.38;4.00;;;7.90;99.90;;;;;;5112726;28;20034;-41
2023/03/06 01:20:14;;;;;;;5.43;3.92;;;7.90;99.90;;;;;;5112844;28;20028;-42
2023/03/06 01:22:40;;;;;;;6.82;4.38;;;7.80;99.90;;;;;;5112635;28;20023;-44
2023/03/06 01:25:06;;;;;;;9.93;5.03;;;7.70;99.90;;;;;;5112665;28;20023;-44
2023/03/06 01:27:31;;;;;;;6.90;3.95;;;7.70;99.90;;;;;;5112774;28;20028;-44
2023/03/06 01:29:57;;;;;;;5.75;4.10;;;7.60;99.90;;;;;;5113018;28;20030;-44
2023/03/06 01:32:23;;;;;;;7.28;4.30;;;7.60;99.90;;;;;;5112547;28;20398;-42
2023/03/06 01:34:48;;;;;;;9.18;4.80;;;7.50;99.90;;;;;;5113287;28;20490;-42
2023/03/06 01:37:14;;;;;;;5.93;4.05;;;7.50;99.90;;;;;;5112262;28;20031;-42
2023/03/06 01:39:40;;;;;;;6.82;4.70;;;7.50;99.90;;;;;;5112668;28;20255;-41
2023/03/06 01:42:06;;;;;;;7.03;3.85;;;7.50;99.90;;;;;;5112725;28;20023;-43
2023/03/06 01:44:32;;;;;;;6.30;4.15;;;7.50;99.90;;;;;;5113127;28;20027;-42
2023/03/06 01:47:01;;;;;;;6.20;3.92;;;7.50;99.90;;;;;;5112223;28;20043;-44
2023/03/06 01:49:38;;;;;;;5.78;3.92;;;7.50;99.90;;;;;;5112648;28;20546;-43
2023/03/06 01:52:17;;;;;;;8.15;4.45;;;7.50;99.90;;;;;;5112336;28;20023;-42
2023/03/06 01:54:53;;;;;;;8.10;4.53;;;7.50;99.90;;;;;;5112395;28;20038;-45
2023/03/06 01:57:27;;;;;;;6.18;4.50;;;7.40;99.90;;;;;;5111167;28;20458;-44
2023/03/06 02:00:10;;;;;;;6.40;3.95;;;7.40;99.90;;;;;;5112229;28;20043;-43
2023/03/06 02:02:36;;;;;;;7.22;4.55;;;7.40;99.90;;;;;;5110720;28;20035;-41
2023/03/06 02:05:04;;;;;;;7.25;4.28;;;7.50;99.90;;;;;;5111999;28;20068;-46
2023/03/06 02:07:30;;;;;;;7.90;4.22;;;7.80;99.90;;;;;;5111818;28;20030;-40
2023/03/06 02:09:56;;;;;;;7.65;4.35;;;8.10;99.90;;;;;;5112308;28;20062;-44
2023/03/06 02:12:22;;;;;;;6.43;3.95;;;8.10;99.90;;;;;;5112283;28;20039;-43
2023/03/06 02:14:48;;;;;;;6.28;4.00;;;8.00;99.90;;;;;;5111840;28;20527;-41
2023/03/06 02:17:17;;;;;;;6.18;3.83;;;7.90;99.90;;;;;;5112781;28;20435;-41
2023/03/06 02:20:01;;;;;;;6.25;3.75;;;7.80;99.90;;;;;;5112951;28;20511;-43
2023/03/06 02:22:42;;;;;;;5.97;4.00;;;7.80;99.90;;;;;;5111780;28;20032;-44
2023/03/06 02:25:42;;;;;;;6.57;4.22;;;7.70;99.90;;;;;;5111717;28;20024;-43
2023/03/06 02:28:11;;;;;;;6.28;3.83;;;7.70;99.90;;;;;;5102565;28;20354;-43
2023/03/06 02:30:37;;;;;;;6.45;4.50;;;7.60;99.90;;;;;;5111827;28;20024;-41
2023/03/06 02:33:03;;;;;;;6.25;3.92;;;7.60;99.90;;;;;;5111743;28;20661;-42
2023/03/06 02:35:35;;;;;;;5.38;3.72;;;7.50;99.90;;;;;;5111857;28;20027;-46
2023/03/06 02:38:09;;;;;;;6.18;4.10;;;7.50;99.90;;;;;;5112729;28;20418;-41
2023/03/06 02:40:35;;;;;;;8.20;4.70;;;7.50;99.90;;;;;;5111968;28;20043;-45
2023/03/06 02:43:01;;;;;;;8.55;4.28;;;7.40;99.90;;;;;;5111516;28;20049;-47
2023/03/06 02:45:39;;;;;;;6.72;3.88;;;7.50;99.90;;;;;;5111573;28;20396;-46
2023/03/06 02:48:05;;;;;;;6.18;4.13;;;7.40;99.90;;;;;;5111446;28;20023;-44
2023/03/06 02:50:32;;;;;;;8.15;4.50;;;7.40;99.90;;;;;;5111518;28;20028;-44
2023/03/06 02:52:57;;;;;;;6.55;3.80;;;7.40;99.90;;;;;;5111959;28;20023;-44
2023/03/06 02:55:23;;;;;;;6.75;4.32;;;7.40;99.90;;;;;;5111702;28;20027;-44
2023/03/06 02:57:49;;;;;;;6.22;4.15;;;7.40;99.90;;;;;;5111288;28;20016;-44
2023/03/06 03:00:17;;;;;;;9.60;4.28;;;7.40;99.90;;;;;;5111367;28;20167;-43
2023/03/06 03:02:44;;;;;;;7.13;4.55;;;7.40;99.90;;;;;;5111365;28;20020;-47
2023/03/06 03:05:10;;;;;;;7.63;4.30;;;7.50;99.90;;;;;;5111728;28;20020;-44
2023/03/06 03:07:35;;;;;;;6.40;4.15;;;7.80;99.90;;;;;;5111380;28;20102;-43
2023/03/06 03:10:01;;;;;;;9.13;4.15;;;8.10;99.90;;;;;;5111877;28;20023;-43
2023/03/06 03:12:27;;;;;;;8.70;4.50;;;8.20;99.90;;;;;;5111248;28;20470;-44
2023/03/06 03:14:56;;;;;;;6.32;4.18;;;8.10;99.90;;;;;;5115685;28;20022;-44
2023/03/06 03:17:22;;;;;;;8.15;4.60;;;8.00;99.90;;;;;;5115695;28;20024;-42
2023/03/06 03:19:48;;;;;;;5.45;4.10;;;7.90;99.90;;;;;;5115234;28;20027;-44
2023/03/06 03:22:14;;;;;;;7.53;4.35;;;7.80;99.90;;;;;;5115054;28;20081;-44
2023/03/06 03:24:41;;;;;;;7.22;4.35;;;7.70;99.90;;;;;;5115298;28;20040;-44
2023/03/06 03:27:07;;;;;;;5.05;3.88;;;7.70;99.90;;;;;;5115193;28;20027;-43
2023/03/06 03:29:33;;;;;;;5.53;4.18;;;7.70;99.90;;;;;;5115559;28;20045;-46
2023/03/06 03:31:59;;;;;;;6.13;4.05;;;7.60;99.90;;;;;;5114919;28;20081;-46
2023/03/06 03:34:25;;;;;;;5.53;4.15;;;7.60;99.90;;;;;;5114199;28;20050;-46
2023/03/06 03:36:50;;;;;;;7.63;4.80;;;7.50;99.90;;;;;;5114989;28;20032;-46
2023/03/06 03:39:16;;;;;;;6.00;3.92;;;7.50;99.90;;;;;;5114899;28;20478;-44
2023/03/06 03:41:41;;;;;;;8.98;4.65;;;7.50;99.90;;;;;;5115211;28;20039;-46
2023/03/06 03:44:08;;;;;;;6.53;4.32;;;7.50;99.90;;;;;;5115653;28;20027;-43
2023/03/06 03:46:34;;;;;;;7.53;4.53;;;7.50;99.90;;;;;;5113714;28;20105;-46
2023/03/06 03:49:00;;;;;;;5.53;3.90;;;7.50;99.90;;;;;;5114693;28;20489;-42
2023/03/06 03:51:25;;;;;;;6.32;4.05;;;7.50;99.90;;;;;;5113795;28;20027;-42
2023/03/06 03:53:51;;;;;;;7.03;4.10;;;7.50;99.90;;;;;;5114643;28;20043;-44
2023/03/06 03:56:17;;;;;;;8.05;4.43;;;7.40;99.90;;;;;;5114585;28;20045;-44
2023/03/06 03:58:43;;;;;;;6.88;4.38;;;7.50;99.90;;;;;;5114461;28;20093;-43
2023/03/06 04:01:09;;;;;;;6.45;4.10;;;7.40;99.90;;;;;;5114379;28;20485;-43
2023/03/06 04:03:34;;;;;;;6.68;4.10;;;7.50;99.90;;;;;;5114457;28;20059;-41
2023/03/06 04:06:00;;;;;;;7.15;4.38;;;7.70;99.90;;;;;;5114180;28;20030;-44
2023/03/06 04:08:27;;;;;;;8.52;4.07;;;8.00;99.90;;;;;;5115159;28;20102;-42
2023/03/06 04:10:53;;;;;;;6.50;4.15;;;8.20;99.90;;;;;;5112835;28;20435;-42
2023/03/06 04:13:20;;;;;;;7.82;4.78;;;8.10;99.90;;;;;;5114005;28;20400;-44
2023/03/06 04:15:47;;;;;;;6.70;4.05;;;8.10;99.90;;;;;;5114386;28;20020;-46
2023/03/06 04:18:15;;;;;;;6.32;4.47;;;8.00;99.90;;;;;;5114583;28;20031;-44
2023/03/06 04:20:41;;;;;;;8.05;4.30;;;7.90;99.90;;;;;;5113997;28;20038;-40
2023/03/06 04:23:08;;;;;;;6.15;3.55;;;7.80;99.90;;;;;;5114680;28;20054;-41
2023/03/06 04:25:34;;;;;;;7.47;4.53;;;7.70;99.90;;;;;;5112698;28;20027;-43
2023/03/06 04:27:59;;;;;;;6.85;4.10;;;7.70;99.90;;;;;;5113705;28;20020;-44
2023/03/06 04:30:25;;;;;;;6.15;4.53;;;7.60;99.90;;;;;;5113916;28;20039;-45
2023/03/06 04:32:51;;;;;;;6.57;4.40;;;7.50;99.90;;;;;;5113985;28;20027;-45
2023/03/06 04:35:16;;;;;;;7.35;4.80;;;7.50;99.90;;;;;;5114019;28;20027;-39
2023/03/06 04:37:42;;;;;;;6.10;4.20;;;7.50;99.90;;;;;;5114204;28;20101;-43
2023/03/06 04:40:18;;;;;;;6.85;4.38;;;7.50;99.90;;;;;;5113762;28;20521;-44
2023/03/06 04:42:44;;;;;;;8.43;4.57;;;7.40;99.90;;;;;;5113597;28;20493;-42
2023/03/06 04:45:10;;;;;;;5.97;4.43;;;7.40;99.90;;;;;;5113917;28;20040;-41
2023/03/06 04:47:35;;;;;;;7.53;4.50;;;7.40;99.90;;;;;;5114435;28;20016;-44
2023/03/06 04:50:01;;;;;;;6.78;4.28;;;7.40;99.90;;;;;;5113532;28;20039;-43
2023/03/06 04:52:27;;;;;;;7.80;4.93;;;7.40;99.90;;;;;;5113452;28;20016;-43
2023/03/06 04:54:52;;;;;;;7.57;4.93;;;7.40;99.90;;;;;;5113221;28;20020;-43
2023/03/06 04:57:18;;;;;;;6.55;4.38;;;7.40;99.90;;;;;;5113698;28;20065;-44
2023/03/06 04:59:43;;;;;;;6.35;4.20;;;7.40;99.90;;;;;;5113309;28;20108;-47
2023/03/06 05:02:09;;;;;;;6.20;4.10;;;7.40;99.90;;;;;;5113304;28;20051;-44
2023/03/06 05:04:35;;;;;;;7.07;4.35;;;7.50;99.90;;;;;;5113837;28;20103;-44
2023/03/06 05:07:01;;;;;;;6.75;3.95;;;7.80;99.90;;;;;;5112940;28;20477;-44
2023/03/06 05:09:28;;;;;;;6.85;4.40;;;8.00;99.90;;;;;;5113183;28;20440;-44
2023/03/06 05:11:54;;;;;;;6.35;4.25;;;8.10;99.90;;;;;;5113145;28;20091;-45
2023/03/06 05:14:20;;;;;;;5.90;4.72;;;8.10;99.90;;;;;;5113004;28;20509;-46
2023/03/06 05:16:45;;;;;;;9.50;4.70;;;8.00;99.90;;;;;;5113075;28;20047;-44
2023/03/06 05:19:11;;;;;;;6.20;4.05;;;7.80;99.90;;;;;;5113383;28;20071;-44
2023/03/06 05:21:37;;;;;;;6.78;4.28;;;7.80;99.90;;;;;;5113217;28;20055;-41
2023/03/06 05:24:02;;;;;;;5.70;4.00;;;7.70;99.90;;;;;;5113064;28;20117;-46
2023/03/06 05:26:28;;;;;;;7.15;4.10;;;7.60;99.90;;;;;;5112511;28;20046;-43
2023/03/06 05:28:54;;;;;;;8.60;4.18;;;7.60;99.90;;;;;;5112761;28;20023;-44
2023/03/06 05:31:20;;;;;;;6.85;4.22;;;7.50;99.90;;;;;;5112999;28;20020;-41
2023/03/06 05:33:45;;;;;;;7.75;4.22;;;7.50;99.90;;;;;;5112834;28;20072;-39
2023/03/06 05:36:12;;;;;;;7.60;4.25;;;7.50;99.90;;;;;;5112629;28;20031;-43
2023/03/06 05:38:38;;;;;;;6.78;4.22;;;7.40;99.90;;;;;;5112742;28;20046;-41
2023/03/06 05:41:04;;;;;;;6.50;4.05;;;7.40;99.90;;;;;;5112665;28;20473;-43
2023/03/06 05:43:29;;;;;;;8.10;4.80;;;7.40;99.90;;;;;;5112387;28;20032;-44
2023/03/06 05:46:03;;;;;;;6.22;4.00;;;7.40;99.90;;;;;;5112142;27;20027;-45
2023/03/06 05:48:29;;;;;;;5.38;4.03;;;7.30;99.90;;;;;;5112446;28;20489;-43
2023/03/06 05:50:57;;;;;;;12.93;8.50;;;7.40;99.90;;;;;;5113051;28;20073;-44
2023/03/06 05:53:23;;;;;;;13.85;8.30;;;7.30;99.90;;;;;;5112102;28;20023;-44
2023/03/06 05:55:57;;;;;;;14.60;8.48;;;7.00;99.90;;;;;;5112661;28;20035;-44
2023/03/06 05:58:24;;;;;;;11.93;7.70;;;6.80;99.90;;;;;;5110815;28;20023;-43
2023/03/06 06:00:51;;;;;;;14.60;7.70;;;6.80;99.90;;;;;;5111964;28;20069;-43
2023/03/06 06:03:17;;;;;;;18.83;8.07;;;6.80;99.90;;;;;;5112745;28;20035;-42
2023/03/06 06:05:43;;;;;;;14.68;8.52;;;7.10;99.90;;;;;;5111926;28;20085;-43
2023/03/06 06:08:08;;;;;;;13.05;8.30;;;7.40;99.90;;;;;;5111930;28;20108;-43
2023/03/06 06:10:34;;;;;;;13.32;7.90;;;7.70;99.90;;;;;;5111940;28;20032;-43
2023/03/06 06:13:00;;;;;;;14.32;7.70;;;7.70;99.90;;;;;;5113862;28;20513;-43
2023/03/06 06:15:27;;;;;;;12.45;7.72;;;7.60;99.90;;;;;;5111896;28;20024;-42
2023/03/06 06:17:55;;;;;;;10.70;7.20;;;7.60;99.90;;;;;;5111685;28;20047;-42
2023/03/06 06:20:20;;;;;;;11.80;7.35;;;7.50;99.90;;;;;;5111857;28;20034;-45
2023/03/06 06:22:46;;;;;;;11.55;6.85;;;7.50;99.90;;;;;;5112772;28;20027;-43
2023/03/06 06:25:12;;;;;;;11.88;7.35;;;7.40;99.90;;;;;;5112606;28;20020;-44
2023/03/06 06:27:38;;;;;;;12.18;7.07;;;7.30;99.90;;;;;;5111938;28;20540;-42
2023/03/06 06:30:05;;;;;;;13.57;7.30;;;7.30;99.90;;;;;;5111897;28;20269;-42
2023/03/06 06:32:31;;;;;;;10.70;6.75;;;7.30;99.90;;;;;;5111809;28;20031;-42
2023/03/06 06:34:56;;;;;;;10.55;7.10;;;7.20;99.90;;;;;;5111907;28;20107;-44
2023/03/06 06:37:23;;;;;;;10.23;6.75;;;7.20;99.90;;;;;;5111433;28;20027;-44
2023/03/06 06:39:49;;;;;;;12.35;7.07;;;7.20;99.90;;;;;;5112050;28;20084;-44
2023/03/06 06:42:15;;;;;;;11.75;6.32;;;7.20;99.90;;;;;;5111475;28;20127;-44
2023/03/06 06:44:41;;;;;;;13.02;6.78;;;7.20;99.90;;;;;;5111490;28;20036;-44
2023/03/06 06:47:07;;;;;;;11.38;6.72;;;7.20;99.90;;;;;;5111322;28;20022;-44
2023/03/06 06:49:33;;;;;;;12.27;6.93;;;7.20;99.90;;;;;;5114741;28;20032;-44
2023/03/06 06:51:59;;;;;;;9.98;6.53;;;7.10;99.90;;;;;;5115702;28;20031;-47
2023/03/06 06:54:25;;;;;;;10.30;6.03;;;7.20;99.90;;;;;;5115680;28;20027;-46
2023/03/06 06:56:51;;;;;;;9.25;6.35;;;7.10;99.90;;;;;;5115343;28;20074;-47
2023/03/06 06:59:16;;;;;;;10.00;6.68;;;7.10;99.90;;;;;;5115531;28;20015;-44
2023/03/06 07:01:42;;;;;;;14.32;6.82;;;7.20;99.90;;;;;;5115534;28;20047;-43
2023/03/06 07:04:12;;;;;;;9.57;6.03;;;7.20;99.90;;;;;;5115459;28;20072;-43
2023/03/06 07:06:38;;;;;;;10.27;6.38;;;7.50;99.90;;;;;;5115188;28;20030;-43
2023/03/06 07:09:04;;;;;;;9.57;6.22;;;7.80;99.90;;;;;;5115356;28;20028;-48
2023/03/06 07:11:30;;;;;;;9.63;6.40;;;7.90;99.90;;;;;;5115347;28;20044;-44
2023/03/06 07:13:56;;;;;;;9.98;6.30;;;7.80;99.90;;;;;;5115334;28;20020;-40
2023/03/06 07:16:22;;;;;;;9.55;5.25;;;7.70;99.90;;;;;;5115053;28;20032;-43
2023/03/06 07:18:48;;;;;;;9.55;5.95;;;7.70;99.90;;;;;;5113938;28;20076;-41
2023/03/06 07:21:13;;;;;;;9.73;6.13;;;7.60;99.90;;;;;;5115286;28;20215;-41
2023/03/06 07:23:39;;;;;;;9.50;6.05;;;7.50;99.90;;;;;;5115072;28;20031;-44
2023/03/06 07:26:05;;;;;;;9.73;6.18;;;7.50;99.90;;;;;;5113624;28;20030;-44
2023/03/06 07:28:31;;;;;;;8.70;5.57;;;7.40;99.90;;;;;;5115114;28;20103;-44
2023/03/06 07:30:57;;;;;;;8.48;5.57;;;7.40;99.90;;;;;;5115001;28;20027;-44
2023/03/06 07:33:23;;;;;;;8.90;6.15;;;7.30;99.90;;;;;;5114744;28;20024;-44
2023/03/06 07:35:48;;;;;;;8.70;5.82;;;7.30;99.90;;;;;;5114588;28;20016;-44
2023/03/06 07:38:14;;;;;;;8.95;5.65;;;7.30;99.90;;;;;;5114690;28;20076;-44
2023/03/06 07:40:40;;;;;;;8.88;5.60;;;7.30;99.90;;;;;;5114704;28;20413;-43
2023/03/06 07:43:05;;;;;;;16.30;9.50;;;7.30;99.90;;;;;;5114775;28;20032;-43
2023/03/06 07:45:32;;;;;;;15.27;9.85;;;7.10;99.90;;;;;;5115053;28;20477;-44
2023/03/06 07:48:00;;;;;;;14.30;8.93;;;7.00;99.90;;;;;;5115032;28;20020;-43
2023/03/06 07:50:27;;;;;;;14.82;9.32;;;7.00;99.90;;;;;;5113766;28;20400;-44
2023/03/06 07:52:53;;;;;;;12.60;8.60;;;7.00;99.90;;;;;;5114449;28;20104;-42
2023/03/06 07:55:18;;;;;;;14.15;9.02;;;7.00;99.90;;;;;;5114503;28;20057;-43
2023/03/06 07:57:44;;;;;;;14.93;8.80;;;7.00;99.90;;;;;;5114570;28;20024;-44
2023/03/06 08:00:13;;;;;;;13.63;9.07;;;7.10;99.90;;;;;;5114324;28;20046;-43
2023/03/06 08:02:40;;;;;;;17.55;9.02;;;7.00;99.90;;;;;;5114413;28;20027;-45
2023/03/06 08:05:07;;;;;;;17.17;9.13;;;7.10;99.90;;;;;;5114280;28;20070;-45
2023/03/06 08:07:33;;;;;;;12.00;7.95;;;7.10;99.90;;;;;;5114456;28;20030;-44
2023/03/06 08:09:59;;;;;;;13.55;8.48;;;7.00;99.90;;;;;;5114347;28;20081;-43
2023/03/06 08:12:24;;;;;;;15.35;8.38;;;7.10;99.90;;;;;;5115599;28;20481;-43
2023/03/06 08:14:50;;;;;;;17.33;8.15;;;7.00;99.90;;;;;;5114204;28;20058;-43
2023/03/06 08:17:16;;;;;;;14.20;8.25;;;7.00;99.90;;;;;;5113952;28;20465;-44
2023/03/06 08:19:41;;;;;;;12.77;8.00;;;7.10;99.90;;;;;;5113016;28;20043;-42
2023/03/06 08:22:07;;;;;;;13.73;7.45;;;7.10;99.90;;;;;;5113900;28;20517;-42
2023/03/06 08:24:33;;;;;;;11.23;7.50;;;7.10;99.90;;;;;;5114019;28;20085;-43
2023/03/06 08:26:59;;;;;;;12.40;7.40;;;7.10;99.90;;;;;;5113766;28;20031;-44
2023/03/06 08:29:26;;;;;;;10.80;7.05;;;7.10;99.90;;;;;;5114595;27;20362;-42
2023/03/06 08:31:52;;;;;;;12.02;7.38;;;7.10;99.90;;;;;;5113781;28;20047;-43
2023/03/06 08:34:20;;;;;;;11.20;7.60;;;7.10;99.90;;;;;;5113838;28;20058;-43
2023/03/06 08:36:45;;;;;;;11.02;7.10;;;7.10;99.90;;;;;;5113418;28;20049;-43
2023/03/06 08:39:12;;;;;;;10.68;6.43;;;7.10;99.90;;;;;;5113754;28;20027;-40
2023/03/06 08:41:40;;;;;;;10.25;6.53;;;7.10;99.90;;;;;;5113822;28;20024;-42
2023/03/06 08:44:06;;;;;;;13.82;7.47;;;7.10;99.90;;;;;;5113591;28;20032;-41
2023/03/06 08:46:33;;;;;;;9.73;6.57;;;7.10;99.90;;;;;;5113347;28;20185;-42
2023/03/06 08:48:59;;;;;;;10.38;6.63;;;7.10;99.90;;;;;;5113541;28;20503;-43
2023/03/06 08:51:25;;;;;;;11.70;6.75;;;7.20;99.90;;;;;;5113883;28;20087;-43
2023/03/06 08:53:51;;;;;;;8.23;6.28;;;7.20;99.90;;;;;;5113444;28;20694;-46
2023/03/06 08:56:28;;;;;;;10.73;5.93;;;7.20;99.90;;;;;;5114847;28;20062;-45
2023/03/06 08:58:56;;;;;;;9.10;6.28;;;7.20;99.90;;;;;;5113512;28;20488;-40
2023/03/06 09:01:27;;;;;;;8.55;6.28;;;7.20;99.90;;;;;;5113170;28;20443;-42
2023/03/06 09:03:55;;;;;;;8.63;5.47;;;7.20;99.90;;;;;;5113060;28;20473;-42
2023/03/06 09:06:22;;;;;;;8.38;5.55;;;7.20;99.90;;;;;;5113185;28;20362;-43
2023/03/06 09:08:51;;;;;;;11.48;5.40;;;7.20;99.90;;;;;;5113132;28;20073;-46
2023/03/06 09:11:17;;;;;;;8.40;6.00;;;7.20;99.90;;;;;;5112453;28;20012;-43
2023/03/06 09:13:42;;;;;;;8.85;5.70;;;7.20;99.90;;;;;;5113030;28;20045;-40
2023/03/06 09:16:10;;;;;;;8.63;5.45;;;7.20;99.90;;;;;;5112802;28;20452;-43
2023/03/06 09:18:36;;;;;;;9.00;5.82;;;7.20;99.90;;;;;;5107477;28;20093;-43
2023/03/06 09:21:02;;;;;;;7.65;4.60;;;7.20;99.90;;;;;;5095536;28;20043;-43
2023/03/06 09:23:28;;;;;;;7.03;5.05;;;7.20;99.90;;;;;;5103298;28;20077;-42
2023/03/06 09:25:56;;;;;;;9.40;5.78;;;7.20;99.90;;;;;;5103574;28;20019;-43
2023/03/06 09:28:22;;;;;;;9.18;4.88;;;7.30;99.90;;;;;;5100420;28;20052;-41
2023/03/06 09:30:48;;;;;;;10.05;5.50;;;7.30;99.90;;;;;;5101124;28;20061;-43
2023/03/06 09:33:14;;;;;;;8.30;5.13;;;7.30;99.90;;;;;;5112400;28;20023;-43
2023/03/06 09:35:49;;;;;;;7.07;4.55;;;7.30;99.90;;;;;;5112492;28;20042;-42
2023/03/06 09:38:16;;;;;;;6.90;4.95;;;7.30;99.90;;;;;;5112614;28;20024;-43
2023/03/06 09:40:56;;;;;;;6.25;5.13;;;7.30;99.90;;;;;;5112680;28;20027;-43
2023/03/06 09:43:34;;;;;;;8.57;4.90;;;7.30;99.90;;;;;;5112223;28;20085;-42
2023/03/06 09:46:04;;;;;;;9.50;5.30;;;7.30;99.90;;;;;;5112844;28;20041;-43
2023/03/06 09:48:47;;;;;;;6.25;4.60;;;7.30;99.90;;;;;;5112401;28;20027;-44
2023/03/06 09:51:19;;;;;;;7.75;4.68;;;7.30;99.90;;;;;;5113856;28;20023;-42
2023/03/06 09:53:48;;;;;;;5.97;4.28;;;7.30;99.90;;;;;;5112244;28;20030;-42
2023/03/06 09:56:18;;;;;;;6.43;4.55;;;7.30;99.90;;;;;;5111999;28;20024;-43
2023/03/06 09:59:07;;;;;;;7.20;4.75;;;7.30;99.90;;;;;;5112373;28;20404;-43
2023/03/06 10:01:36;;;;;;;5.93;4.18;;;7.30;99.90;;;;;;5105096;28;20389;-43
2023/03/06 10:04:07;;;;;;;7.05;4.63;;;7.30;99.90;;;;;;5112033;28;20042;-43
2023/03/06 10:06:44;;;;;;;6.13;4.60;;;7.30;99.90;;;;;;5112320;28;20666;-41
2023/03/06 10:09:17;;;;;;;5.65;4.18;;;7.40;99.90;;;;;;5112534;28;20426;-41
2023/03/06 10:11:54;;;;;;;6.05;4.18;;;7.40;99.90;;;;;;5112542;28;20094;-44
2023/03/06 10:14:42;;;;;;;7.45;4.32;;;7.30;99.90;;;;;;5112456;28;20373;-40
2023/03/06 10:17:15;;;;;;;5.63;3.83;;;7.30;99.90;;;;;;5111685;28;20023;-40
2023/03/06 10:19:41;;;;;;;6.88;4.22;;;7.30;99.90;;;;;;5112037;28;20028;-46
2023/03/06 10:22:12;;;;;;;7.43;4.35;;;7.40;99.90;;;;;;5111525;28;20035;-43
2023/03/06 10:24:58;;;;;;;5.75;4.13;;;7.40;99.90;;;;;;5111690;28;20030;-47
2023/03/06 10:27:42;;;;;;;6.15;4.10;;;7.40;99.90;;;;;;5112253;28;20020;-43
2023/03/06 10:30:19;;;;;;;6.57;4.30;;;7.40;99.90;;;;;;5111921;28;20024;-41
2023/03/06 10:33:01;;;;;;;7.35;4.22;;;7.40;99.90;;;;;;5111826;28;20030;-43
2023/03/06 10:35:48;;;;;;;5.82;3.97;;;7.40;99.90;;;;;;5111780;28;20046;-43
2023/03/06 10:38:31;;;;;;;5.65;3.80;;;7.40;99.90;;;;;;5112773;28;20027;-40
2023/03/06 10:41:12;;;;;;;6.88;4.15;;;7.40;99.90;;;;;;5112249;28;20084;-46
2023/03/06 10:43:43;;;;;;;5.43;4.03;;;7.40;99.90;;;;;;5111527;28;20292;-46
2023/03/06 10:46:11;;;;;;;4.97;3.83;;;7.40;99.90;;;;;;5111920;28;20068;-44
2023/03/06 10:48:39;;;;;;;6.78;4.25;;;7.40;99.90;;;;;;5111551;28;20027;-45
2023/03/06 10:51:20;;;;;;;4.68;3.67;;;7.30;99.90;;;;;;5111454;28;20114;-44
2023/03/06 10:53:56;;;;;;;5.82;3.97;;;7.40;99.90;;;;;;5111524;28;20513;-45
2023/03/06 10:56:36;;;;;;;7.28;4.30;;;7.30;99.90;;;;;;5111886;28;20035;-42
2023/03/06 10:59:10;;;;;;;5.40;4.07;;;7.30;99.90;;;;;;5111430;28;20071;-43
2023/03/06 11:01:36;;;;;;;;;;;7.40;99.90;;;;;;5111812;28;20043;-42
2023/03/06 11:04:13;;;;;;;5.80;3.90;;;7.40;99.90;;;;;;5111849;28;19986;-42
2023/03/06 11:06:39;;;;;;;5.47;3.85;;;7.40;99.90;;;;;;5111023;28;20099;-40
2023/03/06 11:09:25;;;;;;;5.97;4.00;;;7.40;99.90;;;;;;5111759;28;20462;-46
2023/03/06 11:11:52;;;;;;;4.85;3.67;;;7.40;99.90;;;;;;5111332;27;20036;-45
2023/03/06 11:14:23;;;;;;;6.38;4.43;;;7.40;99.90;;;;;;5111523;28;20024;-43
2023/03/06 11:16:53;;;;;;;5.68;3.83;;;7.40;99.90;;;;;;5111119;28;20028;-43
2023/03/06 11:19:28;;;;;;;4.85;4.00;;;7.40;99.90;;;;;;5111616;28;20595;-43
2023/03/06 11:22:17;;;;;;;4.07;3.28;;;7.30;99.90;;;;;;5112068;28;20024;-42
2023/03/06 11:24:47;;;;;;;7.72;4.30;;;7.30;99.90;;;;;;5111239;28;20111;-42
2023/03/06 11:27:22;;;;;;;10.68;6.85;;;7.40;99.90;;;;;;5111059;28;20426;-43
2023/03/06 11:29:50;;;;;;;11.00;6.85;;;7.30;99.90;;;;;;5112733;28;20027;-45
2023/03/06 11:32:27;;;;;;;10.50;6.78;;;7.20;99.90;;;;;;5112287;28;20461;-46
2023/03/06 11:35:10;;;;;;;10.63;6.57;;;7.20;99.90;;;;;;5113064;28;20035;-44
2023/03/06 11:37:47;;;;;;;11.82;6.93;;;7.30;99.90;;;;;;5114777;28;20103;-43
2023/03/06 11:40:28;;;;;;;10.15;6.65;;;7.30;99.90;;;;;;5114976;28;20019;-46
2023/03/06 11:43:24;;;;;;;10.68;6.70;;;7.30;99.90;;;;;;5114822;28;20028;-45
2023/03/06 11:46:02;;;;;;;10.88;6.30;;;7.30;99.90;;;;;;5114591;28;20080;-43
2023/03/06 11:48:37;;;;;;;8.40;6.05;;;7.30;99.90;;;;;;5114673;28;20533;-44
2023/03/06 11:51:17;;;;;;;10.93;6.28;;;7.30;99.90;;;;;;5114733;28;20033;-44
2023/03/06 11:53:42;;;;;;;7.75;5.78;;;7.30;99.90;;;;;;5114692;28;20081;-44
2023/03/06 11:56:17;;;;;;;7.85;5.28;;;7.40;99.90;;;;;;5114376;28;20477;-44
2023/03/06 11:59:09;;;;;;;7.95;5.45;;;7.40;99.90;;;;;;5114397;28;20030;-44
2023/03/06 12:01:40;;;;;;;9.15;6.07;;;7.40;99.90;;;;;;5092562;28;20051;-44
2023/03/06 12:04:31;;;;;;;8.85;5.65;;;7.40;99.90;;;;;;5114310;28;20039;-44
2023/03/06 12:06:56;;;;;;;7.55;5.32;;;7.40;99.90;;;;;;5114611;28;20030;-44
2023/03/06 12:09:41;;;;;;;7.93;5.18;;;7.40;99.90;;;;;;5114294;28;20024;-44
2023/03/06 12:12:26;;;;;;;9.57;5.50;;;7.40;99.90;;;;;;5114229;28;20020;-44
2023/03/06 12:15:08;;;;;;;8.05;5.35;;;7.50;99.90;;;;;;5114116;28;20023;-43
2023/03/06 12:18:02;;;;;;;8.35;5.40;;;7.50;99.90;;;;;;5113900;28;20118;-44
2023/03/06 12:20:30;;;;;;;8.82;5.40;;;7.50;99.90;;;;;;5114127;28;20037;-44
2023/03/06 12:23:22;;;;;;;7.13;4.50;;;7.50;99.90;;;;;;5114349;28;20031;-44
2023/03/06 12:26:18;;;;;;;7.00;4.88;;;7.50;99.90;;;;;;5108636;28;20036;-44
2023/03/06 12:29:11;;;;;;;7.57;4.68;;;7.50;99.90;;;;;;5114116;28;20027;-44
2023/03/06 12:31:46;;;;;;;7.43;4.82;;;7.50;99.90;;;;;;5113828;28;20057;-44
2023/03/06 12:34:23;;;;;;;7.07;4.57;;;7.60;99.90;;;;;;5113767;28;20521;-44
2023/03/06 12:37:06;;;;;;;7.07;4.72;;;7.60;99.90;;;;;;5113662;28;20028;-44
2023/03/06 12:39:47;;;;;;;6.60;4.70;;;7.60;99.90;;;;;;5113770;28;20028;-43
2023/03/06 12:42:19;;;;;;;12.60;6.68;;;7.60;99.90;;;;;;5103633;28;20024;-44
2023/03/06 12:45:00;;;;;;;13.73;6.32;;;7.60;99.90;;;;;;5105116;28;20020;-44
2023/03/06 12:47:27;;;;;;;10.45;6.97;;;7.60;99.90;;;;;;5099181;28;20031;-44
2023/03/06 12:50:02;;;;;;;9.82;6.43;;;7.60;99.90;;;;;;5095396;28;20026;-44
2023/03/06 12:52:31;;;;;;;9.77;6.25;;;7.60;99.90;;;;;;5093096;28;20028;-44
2023/03/06 12:55:04;;;;;;;9.15;5.97;;;7.60;99.90;;;;;;5092896;28;20081;-43
2023/03/06 12:57:30;;;;;;;10.97;6.17;;;7.60;99.90;;;;;;5093096;28;20443;-41
2023/03/06 12:59:56;;;;;;;8.98;6.03;;;7.60;99.90;;;;;;5092748;28;20457;-42
2023/03/06 13:02:30;;;;;;;8.73;5.68;;;7.60;99.90;;;;;;5092941;28;20111;-42
2023/03/06 13:05:17;;;;;;;9.30;5.82;;;7.60;99.90;;;;;;5093319;28;20054;-43
2023/03/06 13:07:56;;;;;;;7.32;5.22;;;7.60;99.90;;;;;;5092802;28;20028;-41